Time;durP1;ratioP1;P1;durP2;ratioP2;P2;SDS_P1;SDS_P2;PMS_P1;PMS_P2;Temp;Humidity;BMP_temperature;BMP_pressure;BME280_temperature;BME280_humidity;BME280_pressure;Samples;Min_cycle;Max_cycle;Signal;HPM_P1;HPM_P2
2021/06/28 00:00:24;;;;;;;6.20;5.70;;;;;;;20.56;75.00;99344.78;5037547;28;20235;-84
2021/06/28 00:02:51;;;;;;;6.40;5.90;;;;;;;20.51;75.20;99350.31;5054097;28;20231;-85
2021/06/28 00:05:19;;;;;;;6.80;6.20;;;;;;;20.49;75.19;99344.31;5037765;28;20229;-85
2021/06/28 00:07:46;;;;;;;8.27;6.70;;;;;;;20.32;75.98;99333.94;5037827;28;20634;-81
2021/06/28 00:10:16;;;;;;;7.03;6.47;;;;;;;20.27;76.21;99331.22;5037511;28;20242;-84
2021/06/28 00:12:45;;;;;;;7.40;6.80;;;;;;;20.14;76.75;99331.94;5022159;28;20227;-86
2021/06/28 00:15:16;;;;;;;7.10;6.60;;;;;;;20.12;77.06;99339.56;5054944;28;20229;-84
2021/06/28 00:17:44;;;;;;;7.57;6.97;;;;;;;20.11;77.06;99336.03;5037747;28;20274;-84
2021/06/28 00:20:12;;;;;;;7.73;7.10;;;;;;;20.00;76.69;99328.28;5037489;28;20617;-84
2021/06/28 00:22:39;;;;;;;7.47;6.90;;;;;;;19.92;77.04;99323.50;5037746;28;20223;-86
2021/06/28 00:25:09;;;;;;;7.83;7.23;;;;;;;19.83;77.15;99325.22;5033949;28;20237;-85
2021/06/28 00:27:37;;;;;;;7.63;7.10;;;;;;;19.69;77.60;99308.78;5034320;28;20239;-83
2021/06/28 00:30:24;;;;;;;7.90;7.20;;;;;;;19.69;77.63;99314.22;5029128;28;20235;-85
2021/06/28 00:32:51;;;;;;;8.17;7.47;;;;;;;19.64;78.02;99317.75;5016922;28;20322;-84
2021/06/28 00:35:20;;;;;;;7.77;7.00;;;;;;;19.62;77.81;99319.97;5031964;28;20227;-82
2021/06/28 00:37:47;;;;;;;7.30;6.70;;;;;;;19.57;78.23;99311.03;5033569;28;20645;-85
2021/06/28 00:40:15;;;;;;;8.17;7.43;;;;;;;19.54;78.29;99314.34;5033549;28;20319;-85
2021/06/28 00:42:42;;;;;;;7.40;6.80;;;;;;;19.46;78.50;99302.16;5035500;28;20556;-86
2021/06/28 00:45:22;;;;;;;7.50;6.80;;;;;;;19.50;78.52;99305.16;5037117;28;20345;-85
2021/06/28 00:47:52;;;;;;;7.43;6.63;;;;;;;19.40;78.72;99303.28;5037026;28;20248;-84
2021/06/28 00:50:20;;;;;;;7.60;6.90;;;;;;;19.40;78.53;99297.84;5053361;28;20323;-83
2021/06/28 00:52:48;;;;;;;7.30;6.60;;;;;;;19.31;78.69;99294.94;5053740;28;20258;-82
2021/06/28 00:55:15;;;;;;;7.60;6.93;;;;;;;19.33;78.79;99300.06;5020360;28;20599;-86
2021/06/28 00:57:42;;;;;;;7.10;6.50;;;;;;;19.27;79.00;99293.88;5037021;28;20240;-84
2021/06/28 01:00:10;;;;;;;7.07;6.53;;;;;;;19.36;78.73;99307.69;5020377;28;20251;-85
2021/06/28 01:02:37;;;;;;;7.23;6.73;;;;;;;19.31;78.73;99311.25;5036823;28;20231;-83
2021/06/28 01:05:07;;;;;;;7.33;6.73;;;;;;;19.31;79.00;99316.69;5032665;28;20316;-85
2021/06/28 01:07:33;;;;;;;6.90;6.40;;;;;;;19.21;79.35;99308.59;5037109;28;20232;-86
2021/06/28 01:10:01;;;;;;;7.33;6.73;;;;;;;19.23;79.35;99319.97;5035821;28;20323;-80
2021/06/28 01:12:28;;;;;;;7.27;6.77;;;;;;;19.18;79.00;99317.31;5053758;28;20232;-82
2021/06/28 01:14:55;;;;;;;7.20;6.60;;;;;;;19.12;79.17;99309.50;5057266;28;20235;-85
2021/06/28 01:17:22;;;;;;;7.53;6.93;;;;;;;19.13;79.39;99328.19;5024034;28;20369;-84
2021/06/28 01:20:23;;;;;;;6.80;6.30;;;;;;;19.13;79.65;99330.91;5041076;28;20534;-83
2021/06/28 01:22:55;;;;;;;7.53;6.93;;;;;;;19.03;79.84;99322.88;5025089;28;20247;-83
2021/06/28 01:25:24;;;;;;;7.93;7.07;;;;;;;19.05;79.60;99328.81;5056782;28;20227;-85
2021/06/28 01:27:52;;;;;;;7.53;6.93;;;;;;;19.03;79.82;99325.56;5040407;28;20321;-84
2021/06/28 01:30:26;;;;;;;7.43;6.93;;;;;;;18.90;80.09;99315.31;5056507;28;20314;-84
2021/06/28 01:32:53;;;;;;;7.47;6.97;;;;;;;18.85;80.11;99315.34;5056949;28;20228;-86
2021/06/28 01:35:21;;;;;;;7.47;6.87;;;;;;;18.90;80.19;99323.47;5055834;28;20233;-80
2021/06/28 01:37:48;;;;;;;7.50;6.90;;;;;;;18.86;80.30;99320.50;5040191;28;20240;-81
2021/06/28 01:40:16;;;;;;;7.53;6.93;;;;;;;18.83;80.41;99314.84;5056480;28;20225;-85
2021/06/28 01:42:44;;;;;;;7.47;6.87;;;;;;;18.88;80.32;99326.50;5040164;28;20241;-85
2021/06/28 01:45:13;;;;;;;7.37;6.67;;;;;;;18.83;80.09;99320.28;5040043;28;20311;-84
2021/06/28 01:47:41;;;;;;;7.50;6.90;;;;;;;18.81;80.07;99323.25;5039397;28;20319;-86
2021/06/28 01:50:10;;;;;;;7.00;6.40;;;;;;;18.78;80.07;99317.59;5057343;28;20252;-86
2021/06/28 01:52:38;;;;;;;7.10;6.60;;;;;;;18.76;80.10;99317.84;5039425;28;20245;-84
2021/06/28 01:55:07;;;;;;;7.60;7.00;;;;;;;18.73;80.02;99320.31;5019507;28;20281;-85
2021/06/28 01:57:36;;;;;;;7.27;6.67;;;;;;;18.63;80.06;99314.94;5020000;28;20544;-85
2021/06/28 02:00:05;;;;;;;7.17;6.53;;;;;;;18.57;80.22;99314.16;5019968;28;20246;-86
2021/06/28 02:02:32;;;;;;;7.60;7.00;;;;;;;18.61;80.12;99331.53;5036248;28;20310;-85
2021/06/28 02:04:59;;;;;;;7.57;6.97;;;;;;;18.49;80.14;99320.16;5029535;28;20309;-84
2021/06/28 02:07:26;;;;;;;7.20;6.50;;;;;;;18.42;80.52;99312.31;5036057;28;20258;-84
2021/06/28 02:09:53;;;;;;;6.87;6.37;;;;;;;18.47;80.64;99335.91;5052633;28;20233;-85
2021/06/28 02:12:19;;;;;;;7.17;6.67;;;;;;;18.38;80.83;99326.72;5035931;28;20238;-84
2021/06/28 02:14:46;;;;;;;7.10;6.40;;;;;;;18.37;80.89;99330.53;5047488;28;20307;-83
2021/06/28 02:17:13;;;;;;;7.00;6.50;;;;;;;18.34;81.17;99326.44;5022942;28;20533;-80
2021/06/28 02:19:40;;;;;;;7.27;6.77;;;;;;;18.31;81.20;99324.28;5055179;28;20225;-81
2021/06/28 02:22:07;;;;;;;7.07;6.50;;;;;;;18.25;80.82;99319.97;5056631;28;20652;-79
2021/06/28 02:24:33;;;;;;;6.60;6.10;;;;;;;18.25;80.88;99328.09;5056416;28;20221;-81
2021/06/28 02:27:00;;;;;;;7.00;6.30;;;;;;;18.24;80.50;99325.69;5055701;28;20591;-82
2021/06/28 02:29:27;;;;;;;7.10;6.57;;;;;;;18.16;80.83;99327.06;5039216;28;20229;-83
2021/06/28 02:31:54;;;;;;;6.80;6.30;;;;;;;18.15;80.80;99317.28;5055897;28;20221;-81
2021/06/28 02:34:21;;;;;;;6.87;6.27;;;;;;;18.23;80.90;99332.19;5053908;28;20252;-84
2021/06/28 02:36:47;;;;;;;7.20;6.60;;;;;;;18.15;80.43;99319.22;5054131;28;20237;-83
2021/06/28 02:39:14;;;;;;;7.17;6.57;;;;;;;18.21;80.49;99329.75;5037527;28;20645;-83
2021/06/28 02:41:42;;;;;;;6.60;6.10;;;;;;;18.21;80.70;99331.66;5055890;28;20283;-81
2021/06/28 02:44:08;;;;;;;7.27;6.57;;;;;;;18.15;80.99;99319.22;5022239;28;20229;-83
2021/06/28 02:46:35;;;;;;;6.40;5.90;;;;;;;18.15;80.58;99321.94;5019169;28;20640;-82
2021/06/28 02:49:02;;;;;;;7.17;6.57;;;;;;;18.07;80.82;99323.28;5035839;28;20798;-85
2021/06/28 02:51:30;;;;;;;6.87;6.33;;;;;;;18.11;80.70;99337.09;5019223;28;20236;-82
2021/06/28 02:53:58;;;;;;;6.80;6.30;;;;;;;18.10;80.77;99338.22;5038550;28;20308;-81
2021/06/28 02:56:25;;;;;;;6.73;6.23;;;;;;;18.10;80.74;99340.91;5056000;28;20231;-80
2021/06/28 02:58:57;;;;;;;6.90;6.40;;;;;;;18.06;80.65;99337.13;5055809;28;20230;-80
2021/06/28 03:01:26;;;;;;;6.50;5.90;;;;;;;18.08;80.48;99343.91;5022695;28;20317;-82
2021/06/28 03:03:53;;;;;;;7.33;6.67;;;;;;;17.98;80.38;99333.88;5022161;28;20225;-81
2021/06/28 03:06:20;;;;;;;6.83;6.33;;;;;;;18.05;80.49;99336.31;5038029;28;20229;-80
2021/06/28 03:08:48;;;;;;;7.03;6.37;;;;;;;17.99;80.38;99334.69;5038837;28;20316;-82
2021/06/28 03:11:17;;;;;;;6.80;6.20;;;;;;;17.96;79.99;99329.84;5038239;28;20312;-83
2021/06/28 03:13:44;;;;;;;7.57;6.53;;;;;;;17.89;80.28;99326.59;5021871;28;20228;-85
2021/06/28 03:16:11;;;;;;;6.70;6.20;;;;;;;18.04;80.33;99345.53;5055330;28;20258;-79
2021/06/28 03:18:39;;;;;;;6.40;5.87;;;;;;;18.04;80.08;99351.78;5054613;28;20226;-80
2021/06/28 03:21:07;;;;;;;6.57;6.10;;;;;;;18.09;80.10;99359.09;5038297;28;20320;-80
2021/06/28 03:23:35;;;;;;;6.70;6.13;;;;;;;18.08;79.70;99353.94;5054840;28;20229;-82
2021/06/28 03:26:02;;;;;;;7.13;6.63;;;;;;;18.14;79.66;99353.66;5051064;28;20312;-80
2021/06/28 03:28:29;;;;;;;7.77;6.33;;;;;;;18.10;79.69;99347.16;5002321;28;20238;-80
2021/06/28 03:30:56;;;;;;;7.03;6.43;;;;;;;18.21;79.40;99354.16;5018497;28;20276;-82
2021/06/28 03:33:24;;;;;;;7.60;6.90;;;;;;;18.23;79.25;99362.03;5034713;28;20244;-83
2021/06/28 03:35:51;;;;;;;6.83;6.33;;;;;;;18.33;79.07;99370.13;5036216;28;20249;-82
2021/06/28 03:38:18;;;;;;;7.57;6.97;;;;;;;18.38;78.92;99361.97;5037836;28;20244;-81
2021/06/28 03:40:45;;;;;;;7.23;6.63;;;;;;;18.43;78.38;99365.47;5038296;28;20304;-79
2021/06/28 03:43:12;;;;;;;6.57;5.97;;;;;;;18.48;78.26;99361.91;5054683;28;20230;-83
2021/06/28 03:45:39;;;;;;;7.00;6.40;;;;;;;18.55;78.31;99358.94;5053934;28;20554;-79
2021/06/28 03:48:08;;;;;;;7.13;6.53;;;;;;;18.61;77.80;99366.81;5037674;28;20328;-79
2021/06/28 03:50:36;;;;;;;6.87;6.37;;;;;;;18.70;77.81;99367.03;5037935;28;20225;-80
2021/06/28 03:53:03;;;;;;;7.37;6.73;;;;;;;18.77;77.52;99373.75;5055428;28;20237;-81
2021/06/28 03:55:30;;;;;;;6.87;6.27;;;;;;;18.85;77.32;99366.94;5020903;28;20587;-79
2021/06/28 03:57:58;;;;;;;7.20;6.60;;;;;;;18.88;77.32;99363.66;5037884;28;20590;-82
2021/06/28 04:00:26;;;;;;;7.07;6.47;;;;;;;18.95;77.21;99374.19;5036507;28;20637;-84
2021/06/28 04:02:55;;;;;;;6.97;6.33;;;;;;;19.15;77.18;99372.19;5054084;28;20225;-80
2021/06/28 04:05:22;;;;;;;7.07;6.57;;;;;;;20.03;74.05;99368.50;5037900;28;20227;-83
2021/06/28 04:07:49;;;;;;;6.67;6.17;;;;;;;21.14;70.29;99374.53;5037745;28;20629;-83
2021/06/28 04:10:20;;;;;;;6.70;6.10;;;;;;;21.90;67.42;99385.81;5053854;28;20758;-80
2021/06/28 04:12:48;;;;;;;5.83;5.33;;;;;;;22.46;65.20;99379.34;5037901;28;20243;-79
2021/06/28 04:15:16;;;;;;;6.30;5.70;;;;;;;22.77;62.97;99383.09;5054075;28;20251;-81
2021/06/28 04:17:45;;;;;;;5.87;5.37;;;;;;;23.04;61.82;99378.72;5037481;28;20631;-81
2021/06/28 04:20:15;;;;;;;7.43;6.50;;;;;;;23.19;60.72;99381.88;5053459;28;20276;-79
2021/06/28 04:22:43;;;;;;;6.70;6.17;;;;;;;23.26;60.87;99376.00;5053873;28;20232;-79
2021/06/28 04:25:14;;;;;;;5.87;5.47;;;;;;;23.52;59.83;99385.22;5029927;28;20621;-82
2021/06/28 04:27:41;;;;;;;5.97;5.43;;;;;;;24.06;58.26;99386.06;5017306;28;20231;-83
2021/06/28 04:30:09;;;;;;;5.97;5.20;;;;;;;24.84;55.22;99388.00;5036175;28;20558;-81
2021/06/28 04:32:38;;;;;;;5.30;4.90;;;;;;;25.78;53.09;99460.56;5038022;28;20228;-82
2021/06/28 04:35:08;;;;;;;5.50;5.00;;;;;;;26.71;50.13;99488.16;5039598;28;20342;-79
2021/06/28 04:37:35;;;;;;;5.40;4.93;;;;;;;27.67;47.37;99492.03;5040763;28;20571;-83
2021/06/28 04:40:04;;;;;;;6.07;5.47;;;;;;;28.32;45.53;99439.72;5024405;28;20228;-81
2021/06/28 04:42:32;;;;;;;5.68;5.18;;;;;;;27.41;47.28;99379.38;5025047;28;20249;-85
2021/06/28 04:44:59;;;;;;;5.95;5.35;;;;;;;26.45;49.25;99380.31;5020980;28;20241;-84
2021/06/28 04:47:25;;;;;;;5.90;5.40;;;;;;;25.86;51.19;99383.69;5037982;28;20315;-83
2021/06/28 04:49:52;;;;;;;5.50;5.10;;;;;;;25.39;52.67;99396.47;5057356;28;20233;-81
2021/06/28 04:52:19;;;;;;;6.50;6.00;;;;;;;24.88;54.05;99391.75;5057166;28;20225;-84
2021/06/28 04:54:46;;;;;;;6.75;6.15;;;;;;;24.84;54.46;99390.75;5057614;28;20893;-79
2021/06/28 04:57:16;;;;;;;7.07;5.40;;;;;;;24.74;55.22;99380.06;5041327;28;20316;-85
2021/06/28 04:59:43;;;;;;;7.20;6.57;;;;;;;24.43;54.84;99388.38;5035566;28;20234;-84
2021/06/28 05:02:10;;;;;;;6.68;6.07;;;;;;;24.36;55.58;99384.44;5045953;28;20222;-84
2021/06/28 05:04:37;;;;;;;7.72;7.03;;;;;;;23.99;55.93;99402.13;5021328;28;20229;-81
2021/06/28 05:07:04;;;;;;;9.25;7.50;;;;;;;24.07;55.82;99398.66;5035937;28;20226;-86
2021/06/28 05:09:31;;;;;;;8.32;7.72;;;;;;;24.11;55.13;99394.16;5041176;28;20229;-83
2021/06/28 05:11:58;;;;;;;8.63;7.72;;;;;;;24.13;55.22;99394.63;5057741;28;20593;-84
2021/06/28 05:14:26;;;;;;;7.95;7.25;;;;;;;24.19;55.47;99392.59;5023629;28;20259;-85
2021/06/28 05:16:53;;;;;;;8.52;7.35;;;;;;;24.14;56.46;99390.78;5040625;28;20539;-85
2021/06/28 05:19:20;;;;;;;7.35;6.75;;;;;;;24.26;56.22;99373.81;5040874;28;20316;-85
2021/06/28 05:21:47;;;;;;;7.80;6.80;;;;;;;24.64;55.00;99387.78;5056860;28;20248;-84
2021/06/28 05:24:14;;;;;;;7.90;7.20;;;;;;;24.70;54.84;99378.28;5039458;28;20217;-86
2021/06/28 05:26:41;;;;;;;7.40;6.72;;;;;;;24.97;54.42;99389.00;5040028;28;20261;-85
2021/06/28 05:29:07;;;;;;;8.15;7.22;;;;;;;25.09;53.80;99399.34;5040870;28;20234;-84
2021/06/28 05:31:34;;;;;;;7.93;7.10;;;;;;;24.99;54.08;99379.34;5056953;28;20261;-82
2021/06/28 05:34:01;;;;;;;8.73;6.95;;;;;;;25.12;54.01;99394.03;5056611;28;20249;-84
2021/06/28 05:36:28;;;;;;;7.90;7.20;;;;;;;25.22;53.91;99392.91;5024119;28;20649;-83
2021/06/28 05:38:55;;;;;;;8.45;7.75;;;;;;;25.12;53.88;99393.22;5056810;28;20256;-86
2021/06/28 05:41:22;;;;;;;7.57;6.90;;;;;;;25.26;53.79;99396.63;5039306;28;20256;-85
2021/06/28 05:43:49;;;;;;;7.55;6.88;;;;;;;25.41;53.47;99404.38;5040046;28;20263;-84
2021/06/28 05:46:16;;;;;;;8.73;6.93;;;;;;;25.59;53.29;99400.53;5056324;28;20229;-84
2021/06/28 05:48:42;;;;;;;7.90;7.10;;;;;;;25.63;53.45;99397.94;5056662;28;20227;-84
2021/06/28 05:51:09;;;;;;;7.38;6.68;;;;;;;25.87;53.06;99406.47;5040035;28;20587;-84
2021/06/28 05:53:38;;;;;;;8.73;7.13;;;;;;;25.95;52.96;99404.81;5039013;28;20237;-81
2021/06/28 05:56:07;;;;;;;7.57;6.93;;;;;;;26.10;52.19;99405.13;5035101;28;20321;-81
2021/06/28 05:58:33;;;;;;;8.23;7.43;;;;;;;26.35;51.57;99400.72;5036689;28;20227;-83
2021/06/28 06:01:01;;;;;;;8.02;7.28;;;;;;;26.46;51.32;99407.44;5037599;28;20226;-84
2021/06/28 06:03:27;;;;;;;7.65;7.00;;;;;;;26.43;51.05;99399.06;5053508;28;20237;-83
2021/06/28 06:05:55;;;;;;;6.97;6.47;;;;;;;26.64;50.51;99400.72;5053748;28;20287;-82
2021/06/28 06:08:23;;;;;;;7.28;6.60;;;;;;;26.76;50.10;99401.97;5020517;28;20232;-81
2021/06/28 06:10:55;;;;;;;6.90;6.25;;;;;;;27.00;49.73;99396.69;5034408;28;20237;-84
2021/06/28 06:13:24;;;;;;;7.50;6.15;;;;;;;27.13;49.94;99396.41;5037784;28;20231;-82
2021/06/28 06:15:52;;;;;;;7.45;6.82;;;;;;;27.46;48.29;99384.69;5030554;28;20212;-84
2021/06/28 06:18:20;;;;;;;8.10;7.03;;;;;;;27.73;47.97;99383.31;5020856;28;20620;-81
2021/06/28 06:20:48;;;;;;;7.40;6.90;;;;;;;28.08;47.05;99387.34;5016741;28;20237;-82
2021/06/28 06:23:15;;;;;;;6.70;6.20;;;;;;;28.25;46.63;99389.91;5047738;28;20659;-80
2021/06/28 06:25:44;;;;;;;7.13;6.20;;;;;;;28.70;45.38;99389.00;5032443;28;20571;-81
2021/06/28 06:28:12;;;;;;;7.53;6.88;;;;;;;28.95;44.76;99390.63;5019430;28;20312;-81
2021/06/28 06:30:40;;;;;;;7.10;6.55;;;;;;;29.07;44.64;99396.09;5054365;28;20244;-83
2021/06/28 06:33:08;;;;;;;6.95;6.35;;;;;;;29.09;44.31;99399.34;5053546;28;20288;-83
2021/06/28 06:35:35;;;;;;;7.07;6.45;;;;;;;28.98;44.53;99402.91;5020131;28;20272;-84
2021/06/28 06:38:03;;;;;;;9.43;7.07;;;;;;;28.85;44.25;99404.88;5038133;28;20224;-82
2021/06/28 06:40:30;;;;;;;9.00;7.63;;;;;;;28.49;45.04;99410.38;5038572;28;20229;-81
2021/06/28 06:42:58;;;;;;;7.28;6.68;;;;;;;28.41;45.63;99407.38;5055260;28;20585;-81
2021/06/28 06:45:27;;;;;;;8.93;7.72;;;;;;;28.27;45.37;99400.59;5038227;28;20237;-83
2021/06/28 06:47:54;;;;;;;7.85;7.25;;;;;;;28.17;45.80;99401.03;5055255;28;20236;-83
2021/06/28 06:50:26;;;;;;;9.00;7.22;;;;;;;27.87;45.90;99409.41;5035635;28;20629;-82
2021/06/28 06:52:54;;;;;;;6.85;6.30;;;;;;;28.15;46.19;99417.88;5027996;28;20219;-84
2021/06/28 06:55:21;;;;;;;8.05;6.75;;;;;;;28.21;46.21;99416.53;5038339;28;20226;-88
2021/06/28 06:57:48;;;;;;;7.50;6.80;;;;;;;28.29;45.08;99412.06;5038572;28;20343;-85
2021/06/28 07:00:17;;;;;;;7.60;6.60;;;;;;;28.19;45.97;99424.31;5021199;28;20237;-85
2021/06/28 07:02:44;;;;;;;8.02;7.28;;;;;;;28.34;44.88;99418.16;5030999;28;20292;-83
2021/06/28 07:05:13;;;;;;;7.95;7.22;;;;;;;28.22;45.12;99417.34;5044220;28;20636;-83
2021/06/28 07:07:40;;;;;;;9.18;7.53;;;;;;;28.36;44.11;99420.56;5037916;28;20283;-86
2021/06/28 07:10:09;;;;;;;7.70;7.10;;;;;;;28.52;43.20;99416.00;5037758;28;20229;-84
2021/06/28 07:12:36;;;;;;;7.75;6.97;;;;;;;28.84;43.14;99411.53;5036717;28;20523;-86
2021/06/28 07:15:04;;;;;;;11.50;7.63;;;;;;;29.04;43.12;99416.13;5036341;28;20308;-86
2021/06/28 07:17:31;;;;;;;9.95;6.80;;;;;;;29.23;43.28;99401.72;5037416;28;20312;-85
2021/06/28 07:19:58;;;;;;;7.18;6.57;;;;;;;29.16;43.62;99412.56;5054067;28;20228;-84
2021/06/28 07:22:25;;;;;;;9.00;6.90;;;;;;;29.18;42.83;99413.78;5037249;28;20229;-84
2021/06/28 07:24:52;;;;;;;9.20;7.32;;;;;;;29.12;43.14;99411.63;5051788;28;20618;-86
2021/06/28 07:27:19;;;;;;;7.32;6.63;;;;;;;29.22;43.38;99414.69;5033893;28;20230;-84
2021/06/28 07:29:45;;;;;;;7.82;6.93;;;;;;;29.17;43.35;99394.81;5030298;28;20237;-85
2021/06/28 07:32:12;;;;;;;9.10;6.47;;;;;;;29.23;43.17;99407.22;5049848;28;20226;-84
2021/06/28 07:34:39;;;;;;;6.95;6.25;;;;;;;29.42;43.04;99403.88;5016892;28;20225;-85
2021/06/28 07:37:06;;;;;;;8.40;6.85;;;;;;;29.48;42.38;99408.00;5017216;28;20230;-84
2021/06/28 07:39:33;;;;;;;7.97;7.18;;;;;;;29.61;42.04;99415.09;5017140;28;20646;-84
2021/06/28 07:41:59;;;;;;;7.63;6.20;;;;;;;29.43;42.80;99419.28;5033557;28;20249;-85
2021/06/28 07:44:27;;;;;;;9.25;7.00;;;;;;;29.51;41.92;99418.34;5033802;28;20229;-83
2021/06/28 07:46:54;;;;;;;7.82;6.90;;;;;;;29.54;41.62;99426.72;5033284;28;20226;-83
2021/06/28 07:49:21;;;;;;;8.95;7.15;;;;;;;29.55;42.15;99409.00;5033698;28;20226;-86
2021/06/28 07:51:49;;;;;;;7.53;6.70;;;;;;;29.38;42.60;99420.34;5033481;28;20232;-82
2021/06/28 07:54:17;;;;;;;8.80;6.85;;;;;;;29.04;43.28;99418.06;5016661;28;20234;-83
2021/06/28 07:56:44;;;;;;;7.55;6.70;;;;;;;28.97;43.28;99402.13;5033202;28;20236;-84
2021/06/28 07:59:11;;;;;;;9.73;6.47;;;;;;;29.11;43.37;99397.03;5033612;28;20514;-83
2021/06/28 08:01:38;;;;;;;7.25;6.65;;;;;;;29.25;42.35;99391.97;5033368;28;20341;-86
2021/06/28 08:04:05;;;;;;;8.57;6.45;;;;;;;29.43;41.71;99398.03;5016462;28;20626;-84
2021/06/28 08:06:31;;;;;;;6.88;6.38;;;;;;;29.61;42.08;99401.28;5033422;28;20252;-84
2021/06/28 08:08:58;;;;;;;6.13;5.55;;;;;;;29.75;42.66;99404.44;5033292;28;20237;-85
2021/06/28 08:11:25;;;;;;;9.25;6.30;;;;;;;29.80;41.88;99403.38;5016861;28;20309;-84
2021/06/28 08:13:53;;;;;;;7.28;5.75;;;;;;;29.94;42.16;99406.56;5033299;28;20230;-85
2021/06/28 08:16:21;;;;;;;8.32;6.90;;;;;;;30.07;41.08;99416.38;5027370;28;20590;-84
2021/06/28 08:18:49;;;;;;;7.10;6.50;;;;;;;30.08;41.38;99406.94;5052783;28;20722;-85
2021/06/28 08:21:33;;;;;;;7.25;6.35;;;;;;;30.18;41.31;99411.97;5038863;28;20534;-82
2021/06/28 08:24:00;;;;;;;7.90;7.10;;;;;;;29.97;42.63;99406.66;5036151;28;20233;-83
2021/06/28 08:26:27;;;;;;;7.10;6.40;;;;;;;29.82;43.18;99410.16;5020092;28;20319;-85
2021/06/28 08:28:55;;;;;;;7.20;6.35;;;;;;;30.11;42.39;99417.28;5033006;28;20333;-86
2021/06/28 08:31:22;;;;;;;7.47;6.78;;;;;;;29.61;42.90;99404.03;5017041;28;20592;-86
2021/06/28 08:34:08;;;;;;;9.23;7.05;;;;;;;29.66;43.09;99403.78;5032524;28;20230;-85
2021/06/28 08:36:35;;;;;;;14.48;7.90;;;;;;;29.66;43.14;99398.28;5033124;28;20280;-86
2021/06/28 08:39:03;;;;;;;7.18;6.47;;;;;;;29.89;42.79;99406.81;5049457;28;20230;-84
2021/06/28 08:41:31;;;;;;;9.15;6.15;;;;;;;29.71;43.30;99407.13;5042545;28;20222;-84
2021/06/28 08:43:58;;;;;;;9.18;6.50;;;;;;;29.82;42.89;99407.38;5033005;28;20261;-83
2021/06/28 08:46:25;;;;;;;8.52;6.45;;;;;;;29.97;43.60;99409.41;5048157;28;20239;-84
2021/06/28 08:48:53;;;;;;;9.55;7.05;;;;;;;29.74;42.59;99405.59;5052689;28;20625;-83
2021/06/28 08:51:20;;;;;;;7.88;6.30;;;;;;;29.85;43.02;99405.91;5020002;28;20286;-84
2021/06/28 08:54:03;;;;;;;6.65;6.05;;;;;;;29.38;43.33;99402.97;5052775;28;20316;-83
2021/06/28 08:56:31;;;;;;;6.78;6.20;;;;;;;29.82;43.04;99398.28;5052292;28;20304;-84
2021/06/28 08:58:59;;;;;;;9.88;6.22;;;;;;;30.04;42.54;99404.09;5036365;28;20240;-85
2021/06/28 09:01:26;;;;;;;7.32;6.57;;;;;;;29.89;42.00;99401.31;5020021;28;20264;-85
2021/06/28 09:03:53;;;;;;;7.25;6.55;;;;;;;30.09;42.22;99401.09;5036362;28;20230;-85
2021/06/28 09:06:27;;;;;;;6.97;6.38;;;;;;;30.02;41.68;99389.84;5052916;28;20225;-86
2021/06/28 09:08:58;;;;;;;8.85;6.07;;;;;;;30.44;41.70;99395.66;5036805;28;20234;-85
2021/06/28 09:11:26;;;;;;;7.57;6.35;;;;;;;30.65;41.24;99389.06;5036781;28;20637;-82
2021/06/28 09:13:55;;;;;;;7.00;6.28;;;;;;;30.82;40.83;99383.97;5036887;28;20229;-84
2021/06/28 09:16:23;;;;;;;7.07;6.47;;;;;;;30.97;40.92;99382.31;5055797;28;20225;-84
2021/06/28 09:19:12;;;;;;;7.90;6.70;;;;;;;30.97;40.80;99379.56;5040811;28;20287;-82
2021/06/28 09:21:42;;;;;;;7.35;6.60;;;;;;;30.70;40.44;99381.31;5058227;28;20388;-86
2021/06/28 09:24:30;;;;;;;11.50;6.70;;;;;;;30.96;41.03;99384.28;5056721;28;20241;-84
2021/06/28 09:27:20;;;;;;;6.70;6.20;;;;;;;30.87;40.94;99372.63;5056718;28;20232;-83
2021/06/28 09:29:52;;;;;;;7.07;6.20;;;;;;;31.09;39.74;99378.66;5056727;28;20742;-84
2021/06/28 09:32:21;;;;;;;9.90;5.93;;;;;;;31.35;39.76;99365.00;5040345;28;20229;-86
2021/06/28 09:34:50;;;;;;;5.65;5.15;;;;;;;31.65;38.56;99371.56;5040329;28;20279;-88
2021/06/28 09:37:27;;;;;;;5.40;4.90;;;;;;;31.70;37.66;99374.03;5023985;28;20229;-83
2021/06/28 09:39:57;;;;;;;5.70;5.20;;;;;;;31.94;37.47;99369.31;5057832;28;20237;-87
2021/06/28 09:42:27;;;;;;;8.52;5.28;;;;;;;32.16;37.01;99374.09;5056094;28;20229;-86
2021/06/28 09:45:03;;;;;;;5.93;5.43;;;;;;;32.27;36.57;99367.59;5056369;28;20641;-87
2021/06/28 09:47:32;;;;;;;5.30;4.90;;;;;;;32.00;36.93;99368.66;5056810;28;20233;-85
2021/06/28 09:50:10;;;;;;;5.78;5.28;;;;;;;31.48;37.92;99358.94;5023532;28;20240;-84
2021/06/28 09:52:43;;;;;;;5.68;5.10;;;;;;;31.44;37.77;99363.63;5057450;28;20229;-87
2021/06/28 09:55:20;;;;;;;6.43;5.43;;;;;;;31.50;38.73;99352.25;5056369;28;20226;-83
2021/06/28 09:58:11;;;;;;;5.78;5.28;;;;;;;31.69;37.95;99363.31;5056343;28;20241;-83
2021/06/28 10:00:43;;;;;;;6.05;5.40;;;;;;;31.32;38.37;99349.09;5056209;28;20233;-83
2021/06/28 10:03:28;;;;;;;5.53;5.07;;;;;;;31.05;38.79;99353.69;5040125;28;20248;-84
2021/06/28 10:06:05;;;;;;;5.38;4.97;;;;;;;31.39;38.56;99360.34;5056147;28;20533;-87
2021/06/28 10:08:36;;;;;;;5.63;5.22;;;;;;;31.30;38.60;99355.03;5056960;28;20238;-84
2021/06/28 10:11:20;;;;;;;5.50;5.10;;;;;;;31.54;38.31;99347.56;5056029;28;20279;-87
2021/06/28 10:13:53;;;;;;;5.88;5.38;;;;;;;31.80;37.46;99356.03;5039874;28;20238;-85
2021/06/28 10:16:22;;;;;;;7.03;4.88;;;;;;;31.77;38.29;99360.34;5039380;28;20221;-85
2021/06/28 10:18:51;;;;;;;6.03;5.40;;;;;;;31.78;38.05;99355.56;5055938;28;20233;-86
2021/06/28 10:21:18;;;;;;;5.63;5.13;;;;;;;31.86;38.66;99354.56;5039184;28;20225;-84
2021/06/28 10:23:45;;;;;;;5.75;5.05;;;;;;;31.76;38.13;99349.63;5039630;28;20233;-85
2021/06/28 10:26:12;;;;;;;5.25;4.80;;;;;;;32.18;37.03;99347.63;5054126;28;20221;-84
2021/06/28 10:28:39;;;;;;;6.00;4.85;;;;;;;32.14;36.88;99340.44;5055517;28;20222;-86
2021/06/28 10:31:07;;;;;;;4.78;4.47;;;;;;;32.51;36.14;99341.44;5055682;28;20245;-88
2021/06/28 10:33:36;;;;;;;5.53;4.95;;;;;;;32.59;36.56;99348.69;5022933;28;20236;-85
2021/06/28 10:36:08;;;;;;;5.65;5.15;;;;;;;32.86;36.51;99338.41;5038998;28;20218;-85
2021/06/28 10:38:50;;;;;;;5.05;4.55;;;;;;;32.98;36.00;99342.94;5039594;28;20553;-83
2021/06/28 10:41:52;;;;;;;5.18;4.78;;;;;;;33.05;35.80;99337.47;5039415;28;20229;-83
2021/06/28 10:44:20;;;;;;;4.70;4.38;;;;;;;33.34;35.32;99347.81;5028076;28;20298;-83
2021/06/28 10:46:49;;;;;;;5.22;4.82;;;;;;;33.15;35.13;99334.88;5055419;28;20283;-86
2021/06/28 10:49:46;;;;;;;5.55;5.10;;;;;;;33.47;35.11;99323.34;5035533;28;20234;-81
2021/06/28 10:52:38;;;;;;;5.03;4.57;;;;;;;33.64;34.79;99331.88;5034916;28;20234;-84
2021/06/28 10:55:17;;;;;;;4.82;4.47;;;;;;;33.93;34.01;99329.41;5036342;28;20234;-84
2021/06/28 10:57:47;;;;;;;6.10;4.40;;;;;;;34.19;34.14;99326.53;5036476;28;20351;-85
2021/06/28 11:00:14;;;;;;;5.32;4.80;;;;;;;34.22;33.65;99319.38;5034886;28;20324;-84
2021/06/28 11:02:42;;;;;;;5.10;4.70;;;;;;;34.30;33.96;99310.72;5051679;28;20242;-83
2021/06/28 11:05:10;;;;;;;5.85;5.03;;;;;;;34.30;33.64;99316.28;5035299;28;20221;-81
2021/06/28 11:07:45;;;;;;;5.60;5.10;;;;;;;33.99;34.91;99314.81;5035964;28;20579;-86
2021/06/28 11:10:13;;;;;;;6.47;5.25;;;;;;;33.26;35.68;99307.25;5034713;28;20229;-87
2021/06/28 11:12:41;;;;;;;6.90;5.35;;;;;;;33.33;35.76;99309.31;5035116;28;20257;-82
2021/06/28 11:15:20;;;;;;;5.38;4.88;;;;;;;33.84;34.39;99317.81;5018521;28;20238;-85
2021/06/28 11:17:57;;;;;;;5.97;5.32;;;;;;;34.17;34.16;99306.66;5018454;28;20645;-86
2021/06/28 11:20:40;;;;;;;5.35;4.95;;;;;;;34.24;34.19;99306.72;5017913;28;20564;-84
2021/06/28 11:23:14;;;;;;;7.80;4.78;;;;;;;34.39;33.75;99294.50;5018699;28;20234;-86
2021/06/28 11:25:47;;;;;;;7.57;5.13;;;;;;;34.25;33.69;99288.06;5035842;28;20238;-81
2021/06/28 11:28:15;;;;;;;5.22;4.82;;;;;;;34.44;34.23;99291.34;5037964;28;20225;-86
2021/06/28 11:30:48;;;;;;;5.75;5.10;;;;;;;34.62;34.04;99291.50;5054541;28;20228;-84
2021/06/28 11:33:16;;;;;;;5.10;4.70;;;;;;;34.38;33.63;99286.56;5054721;28;20256;-86
2021/06/28 11:35:48;;;;;;;5.43;5.03;;;;;;;34.73;33.51;99291.56;5038105;28;20237;-84
2021/06/28 11:38:26;;;;;;;5.38;4.97;;;;;;;34.74;32.65;99271.72;5053584;28;20785;-85
2021/06/28 11:41:03;;;;;;;5.10;4.70;;;;;;;34.78;32.93;99283.66;5038485;28;20235;-86
2021/06/28 11:43:39;;;;;;;5.80;5.32;;;;;;;34.24;33.14;99278.13;5054269;28;20224;-86